Carlos Maria Naon, Argentina
Current Conditions -  °F | °C
As of 9:00 AM on Tuesday 21 Oct 2014 (Local Time) from SAEZ Reporting Station
Clear Clear  
Wind Chill: 22°   Ceiling: Unl
Heat Index: 22°   Visibility: 6mi
Dew Point: 11°   Wind: 12mph
Humidity: 50%   Direction: 360°N
Pressure: 30.12"   Gusts: NA
Location:  35.25°S, 60.84°W
Report Text: SAEZ 211200Z 36010KT 310V030 CAVOK 22/11 Q1020
Loading
Personal Weather Stations






























Interactive Weather Map
Tropical Storm Tracking
New forecast layout! Learn more

10-Day Weather Forecast

Advertisements
Track Severe Weather on mobile